createdAt,value
2023-01-30T00:01:41.817Z,98903.09
2023-01-30T00:04:53.188Z,98881.06
2023-01-30T00:08:01.303Z,98875.16
2023-01-30T00:11:13.584Z,98859.16
2023-01-30T00:14:22.952Z,98837.19
2023-01-30T00:17:31.870Z,98836.00
2023-01-30T00:20:41.458Z,98856.53
2023-01-30T00:23:56.180Z,98853.00
2023-01-30T00:27:05.604Z,98855.03
2023-01-30T00:30:13.306Z,98845.97
2023-01-30T00:33:21.925Z,98836.88
2023-01-30T00:36:33.416Z,98832.81
2023-01-30T00:39:42.686Z,98830.56
2023-01-30T00:43:05.680Z,98834.25
2023-01-30T00:46:35.755Z,98837.72
2023-01-30T00:49:48.906Z,98853.28
2023-01-30T00:53:01.139Z,98857.13
2023-01-30T00:56:08.800Z,98870.97
2023-01-30T00:59:17.227Z,98891.66
2023-01-30T01:02:23.776Z,98905.34
2023-01-30T01:05:37.619Z,98913.31
2023-01-30T01:08:51.830Z,98912.28
2023-01-30T01:12:12.772Z,98905.81
2023-01-30T01:15:20.998Z,98909.88
2023-01-30T01:18:27.734Z,98898.56
2023-01-30T01:21:36.403Z,98918.41
2023-01-30T01:24:45.320Z,98909.41
2023-01-30T01:27:55.014Z,98909.25
2023-01-30T01:31:06.694Z,98929.03
2023-01-30T01:34:14.887Z,98925.88
2023-01-30T01:37:26.372Z,98915.28
2023-01-30T01:40:58.851Z,98913.63
2023-01-30T01:44:09.002Z,98905.00
2023-01-30T01:47:15.783Z,98904.66
2023-01-30T01:50:27.683Z,98912.53
2023-01-30T01:53:39.168Z,98911.38
2023-01-30T01:56:52.237Z,98882.22
2023-01-30T02:00:08.351Z,98899.38
2023-01-30T02:03:23.106Z,98910.00
2023-01-30T02:06:37.531Z,98904.75
2023-01-30T02:09:46.781Z,98918.88
2023-01-30T02:13:13.818Z,98897.56
2023-01-30T02:16:34.414Z,98894.41
2023-01-30T02:19:54.102Z,98877.63
2023-01-30T02:23:30.549Z,98881.44
2023-01-30T02:27:39.460Z,98868.06
2023-01-30T02:31:19.895Z,98872.34
2023-01-30T02:34:50.209Z,98884.53
2023-01-30T02:57:46.678Z,98817.72
2023-01-30T03:37:16.441Z,98681.19
2023-01-30T03:46:11.413Z,98732.88
2023-01-30T04:50:07.820Z,98703.50
2023-01-30T04:54:07.827Z,98699.66
2023-01-30T05:02:45.513Z,98693.41
2023-01-30T05:11:48.805Z,98687.16
2023-01-30T05:42:53.431Z,98652.63
2023-01-30T06:51:19.295Z,98608.97
